Time;durP1;ratioP1;P1;durP2;ratioP2;P2;SDS_P1;SDS_P2;PMS_P1;PMS_P2;Temp;Humidity;BMP_temperature;BMP_pressure;BME280_temperature;BME280_humidity;BME280_pressure;Samples;Min_cycle;Max_cycle;Signal;HPM_P1;HPM_P2
2020/12/09 00:02:26;;;;;;;127.05;56.75;;;;;;;-0.12;77.22;99876.00;2148556;81;29219;-67
2020/12/09 00:05:29;;;;;;;102.00;51.98;;;;;;;-0.11;77.22;99872.48;2152917;80;27730;-68
2020/12/09 00:08:31;;;;;;;112.03;55.08;;;;;;;-0.10;77.12;99870.70;2162371;80;28664;-69
2020/12/09 00:11:35;;;;;;;101.40;50.40;;;;;;;-0.11;77.24;99872.91;2133244;80;31011;-67
2020/12/09 00:14:38;;;;;;;109.63;54.08;;;;;;;-0.12;77.32;99875.11;2100568;81;32917;-67
2020/12/09 00:31:08;;;;;;;103.83;47.88;;;;;;;-0.20;77.51;99889.69;2180113;80;29673;-69
2020/12/09 00:34:12;;;;;;;106.32;54.20;;;;;;;-0.19;77.61;99887.48;2214701;80;29169;-68
2020/12/09 00:37:14;;;;;;;106.72;54.77;;;;;;;-0.22;77.55;99887.09;2208561;80;27671;-65
2020/12/09 00:40:17;;;;;;;111.30;52.80;;;;;;;-0.22;77.64;99877.88;2180122;80;28816;-63
2020/12/09 00:43:19;;;;;;;104.50;51.23;;;;;;;-0.23;77.68;99882.71;2193943;80;31664;-64
2020/12/09 00:46:25;;;;;;;104.05;51.73;;;;;;;-0.23;77.70;99881.39;2212955;79;33942;-65
2020/12/09 00:49:27;;;;;;;90.47;44.55;;;;;;;-0.24;77.83;99890.18;2215813;80;29210;-68
2020/12/09 00:52:31;;;;;;;118.40;57.88;;;;;;;-0.24;77.88;99899.82;2216151;79;27979;-68
2020/12/09 00:55:34;;;;;;;119.50;60.38;;;;;;;-0.26;77.83;99897.68;2219962;79;29690;-63
2020/12/09 00:58:37;;;;;;;125.45;62.45;;;;;;;-0.28;77.80;99898.14;2182014;80;33484;-68
2020/12/09 01:01:40;;;;;;;116.90;56.83;;;;;;;-0.27;77.82;99890.20;2200974;80;33167;-68
2020/12/09 01:04:42;;;;;;;112.35;53.10;;;;;;;-0.27;77.77;99894.16;2216407;80;29934;-68
2020/12/09 01:07:45;;;;;;;89.55;45.58;;;;;;;-0.28;77.83;99888.47;2200054;80;27837;-68
2020/12/09 01:10:47;;;;;;;113.32;54.05;;;;;;;-0.27;77.98;99881.45;2178585;81;29253;-67
2020/12/09 01:13:49;;;;;;;114.25;56.33;;;;;;;-0.27;77.80;99884.94;2185912;80;31349;-67
2020/12/09 01:16:53;;;;;;;103.12;49.85;;;;;;;-0.23;77.84;99877.88;2200930;80;33652;-68
2020/12/09 01:19:56;;;;;;;134.23;59.03;;;;;;;-0.22;77.95;99869.09;2184033;80;29212;-68
2020/12/09 01:22:59;;;;;;;142.80;65.05;;;;;;;-0.20;77.85;99874.78;2140046;83;28127;-67
2020/12/09 01:26:01;;;;;;;105.45;54.20;;;;;;;-0.17;77.84;99871.23;2193144;79;30163;-65
2020/12/09 01:29:03;;;;;;;96.15;46.68;;;;;;;-0.17;77.86;99872.55;2186018;80;31615;-68
2020/12/09 01:32:05;;;;;;;105.55;53.60;;;;;;;-0.18;77.94;99873.00;2179026;80;34520;-66
2020/12/09 01:35:07;;;;;;;77.72;38.48;;;;;;;-0.19;77.93;99868.62;2138863;83;30103;-67
2020/12/09 01:38:09;;;;;;;104.40;48.80;;;;;;;-0.19;78.14;99875.21;2200023;79;28154;-69
2020/12/09 01:41:11;;;;;;;94.72;48.05;;;;;;;-0.17;78.04;99867.28;2193722;80;28820;-68
2020/12/09 01:44:14;;;;;;;97.75;50.43;;;;;;;-0.10;78.05;99878.60;2175969;81;31151;-68
2020/12/09 01:47:16;;;;;;;106.50;52.88;;;;;;;;;;2203624;80;34452;-66
2020/12/09 01:50:18;;;;;;;103.12;47.90;;;;;;;0.06;78.13;99889.36;2198344;79;29183;-69
2020/12/09 01:53:20;;;;;;;105.63;53.55;;;;;;;0.12;77.91;99889.72;2210845;80;27676;-68
2020/12/09 01:56:22;;;;;;;98.33;49.83;;;;;;;0.13;77.76;99894.98;2187653;80;29241;-67
2020/12/09 01:59:24;;;;;;;98.45;48.13;;;;;;;0.20;77.83;99892.25;2193605;80;31578;-68
2020/12/09 02:02:27;;;;;;;90.32;45.15;;;;;;;0.22;77.74;99892.67;2178168;81;33116;-67
2020/12/09 02:05:30;;;;;;;91.65;45.00;;;;;;;0.24;77.73;99892.20;2178707;81;29341;-66
2020/12/09 02:08:33;;;;;;;83.90;43.20;;;;;;;0.26;77.60;99887.77;2202365;80;27722;-65
2020/12/09 02:11:35;;;;;;;88.90;44.53;;;;;;;0.31;77.53;99879.82;2216836;80;29468;-66
2020/12/09 02:14:37;;;;;;;86.78;43.90;;;;;;;0.32;77.46;99874.09;2212544;79;31141;-69
2020/12/09 02:17:39;;;;;;;97.10;45.90;;;;;;;0.34;77.43;99872.30;2200283;80;33338;-68
2020/12/09 02:20:41;;;;;;;86.90;46.33;;;;;;;0.35;77.46;99870.95;2178741;81;29607;-65
2020/12/09 02:23:43;;;;;;;89.00;44.83;;;;;;;0.35;77.40;99868.31;2178390;81;27716;-67
2020/12/09 02:26:50;;;;;;;96.12;46.45;;;;;;;0.33;77.47;99865.30;2207215;80;29324;-69
2020/12/09 02:29:52;;;;;;;130.25;56.08;;;;;;;0.33;77.56;99856.07;2221026;79;31257;-66
2020/12/09 02:32:55;;;;;;;101.05;45.48;;;;;;;0.33;77.58;99869.24;2191253;79;34291;-68
2020/12/09 02:35:58;;;;;;;85.45;39.92;;;;;;;0.32;77.66;99874.09;2178159;81;30630;-68
2020/12/09 02:39:00;;;;;;;100.07;47.00;;;;;;;0.32;77.65;99881.99;2213974;80;27812;-64
2020/12/09 02:42:04;;;;;;;91.95;46.90;;;;;;;0.34;77.68;99882.84;2201727;80;30385;-68
2020/12/09 02:45:06;;;;;;;87.90;43.73;;;;;;;0.40;77.75;99880.98;2186962;81;31146;-68
2020/12/09 02:48:08;;;;;;;83.85;41.92;;;;;;;0.45;77.78;99876.53;2161393;81;33185;-66
2020/12/09 02:51:10;;;;;;;98.25;47.88;;;;;;;0.44;77.70;99873.89;2152117;81;30602;-66
2020/12/09 02:54:12;;;;;;;86.32;42.25;;;;;;;0.44;77.80;99879.17;2188525;81;27867;-69
2020/12/09 02:57:15;;;;;;;84.32;39.42;;;;;;;0.47;77.88;99877.81;2178247;81;29786;-66
2020/12/09 03:00:17;;;;;;;92.27;42.83;;;;;;;0.49;77.90;99876.02;2188415;81;32101;-66
2020/12/09 03:03:20;;;;;;;82.85;41.95;;;;;;;0.45;77.86;99868.62;2182527;81;34464;-68
2020/12/09 03:06:22;;;;;;;94.17;43.48;;;;;;;0.44;77.90;99876.53;2151558;81;29263;-68
2020/12/09 03:09:24;;;;;;;81.95;38.98;;;;;;;0.44;78.06;99882.69;2186412;81;27797;-67
2020/12/09 03:12:26;;;;;;;74.77;36.03;;;;;;;0.44;77.97;99877.85;2188555;81;29255;-66
2020/12/09 03:15:28;;;;;;;82.45;38.33;;;;;;;0.47;78.12;99880.91;2188658;81;32497;-68
2020/12/09 03:18:30;;;;;;;83.87;40.95;;;;;;;0.44;78.13;99873.47;2189538;81;33133;-66
2020/12/09 03:21:32;;;;;;;76.92;36.48;;;;;;;0.50;78.31;99869.86;2140443;82;31567;-69
2020/12/09 03:24:34;;;;;;;75.40;36.13;;;;;;;0.52;78.37;99871.14;2148619;82;27725;-68
2020/12/09 03:27:37;;;;;;;80.40;39.08;;;;;;;0.52;78.36;99885.20;2148528;82;29280;-67
2020/12/09 03:30:39;;;;;;;86.55;40.52;;;;;;;0.55;78.29;99884.28;2141733;82;32093;-66
2020/12/09 03:33:42;;;;;;;74.87;34.45;;;;;;;0.55;78.32;99887.80;2165526;82;33616;-67
2020/12/09 03:36:43;;;;;;;90.72;40.05;;;;;;;0.57;78.51;99899.63;2150647;82;29580;-66
2020/12/09 03:39:45;;;;;;;77.22;36.58;;;;;;;0.56;78.34;99898.77;2128757;83;27888;-67
2020/12/09 03:42:47;;;;;;;81.67;36.25;;;;;;;0.57;78.41;99894.36;2154983;80;29762;-67
2020/12/09 03:45:49;;;;;;;90.55;38.63;;;;;;;0.59;78.47;99884.66;2197324;80;31139;-68
2020/12/09 03:48:52;;;;;;;87.50;37.40;;;;;;;0.60;78.48;99887.27;2185360;80;33248;-65
2020/12/09 03:51:54;;;;;;;78.28;33.63;;;;;;;0.59;78.58;99885.98;2212746;80;30130;-67
2020/12/09 03:54:56;;;;;;;79.55;39.10;;;;;;;0.58;78.68;99881.61;2217147;79;27714;-67
2020/12/09 03:58:00;;;;;;;60.10;29.27;;;;;;;0.57;78.68;99882.50;2192231;79;28870;-65
2020/12/09 04:01:03;;;;;;;71.65;32.28;;;;;;;0.57;78.87;99871.53;2180755;79;32565;-66
2020/12/09 04:04:05;;;;;;;75.32;37.40;;;;;;;0.50;78.97;99870.33;2211961;80;34408;-65
2020/12/09 04:17:06;;;;;;;85.60;37.70;;;;;;;0.62;79.10;99896.92;2209369;80;27790;-68
2020/12/09 04:20:09;;;;;;;78.25;35.60;;;;;;;0.65;79.13;99916.22;2211160;80;32944;-67
2020/12/09 04:23:12;;;;;;;84.20;38.55;;;;;;;0.70;79.25;99922.73;2184012;80;30185;-71
2020/12/09 04:26:14;;;;;;;75.92;36.10;;;;;;;0.72;79.12;99915.67;2182960;80;27668;-68
2020/12/09 04:29:16;;;;;;;78.20;37.98;;;;;;;0.71;79.00;99903.38;2176986;79;28835;-69
2020/12/09 04:32:19;;;;;;;60.33;27.35;;;;;;;0.73;79.11;99905.55;2176491;81;31579;-67
2020/12/09 04:35:22;;;;;;;70.55;30.97;;;;;;;0.72;79.49;99898.08;2207101;80;33241;-68
2020/12/09 04:38:25;;;;;;;76.07;36.58;;;;;;;0.73;79.21;99911.68;2190093;80;29263;-69
2020/12/09 04:41:27;;;;;;;82.78;36.50;;;;;;;0.73;79.06;99900.28;2202254;80;27667;-70
2020/12/09 04:44:30;;;;;;;71.33;33.73;;;;;;;0.78;79.14;99889.66;2188903;81;30226;-69
2020/12/09 04:47:44;;;;;;;76.67;35.95;;;;;;;0.78;79.20;99890.97;2183617;81;32533;-70
2020/12/09 04:51:07;;;;;;;72.78;35.05;;;;;;;0.80;79.27;99893.99;2171062;81;32988;-70
2020/12/09 04:54:15;;;;;;;75.45;35.70;;;;;;;0.84;79.32;99896.13;2181057;81;30353;-67
2020/12/09 04:57:26;;;;;;;76.95;34.05;;;;;;;0.84;79.37;99900.97;2172952;81;27757;-69
2020/12/09 05:00:30;;;;;;;66.87;32.28;;;;;;;0.81;79.39;99910.70;2114137;82;29017;-68
2020/12/09 05:03:50;;;;;;;103.27;40.05;;;;;;;0.81;79.53;99901.02;2114400;82;34807;-67
2020/12/09 05:06:54;;;;;;;85.87;37.23;;;;;;;0.82;79.52;99897.95;2117417;82;33140;-66
2020/12/09 05:09:58;;;;;;;80.75;36.85;;;;;;;0.85;79.55;99898.75;2169481;81;29232;-68
2020/12/09 05:13:02;;;;;;;86.90;38.17;;;;;;;0.89;79.57;99892.55;2113319;84;27699;-69
2020/12/09 05:16:04;;;;;;;74.70;35.43;;;;;;;0.87;79.59;99893.02;2121806;82;29262;-68
2020/12/09 05:19:07;;;;;;;83.15;36.25;;;;;;;0.86;79.58;99903.14;2085622;84;32032;-63
2020/12/09 05:22:17;;;;;;;78.60;36.08;;;;;;;0.87;79.62;99905.31;2144827;83;33177;-66
2020/12/09 05:25:19;;;;;;;73.00;33.48;;;;;;;0.89;79.58;99900.89;2116268;83;29119;-69
2020/12/09 05:28:21;;;;;;;66.77;32.80;;;;;;;0.95;79.56;99906.50;2150861;81;27659;-67
2020/12/09 05:31:23;;;;;;;75.83;33.55;;;;;;;1.00;79.49;99921.81;2157633;81;28818;-67
2020/12/09 05:34:31;;;;;;;78.45;38.02;;;;;;;1.07;79.58;99918.19;2156681;82;31470;-68
2020/12/09 05:37:34;;;;;;;57.33;26.97;;;;;;;1.16;79.58;99918.02;2161328;82;33960;-67
2020/12/09 05:40:39;;;;;;;72.58;34.43;;;;;;;1.19;79.56;99915.77;2149171;81;29476;-69
2020/12/09 05:43:45;;;;;;;70.42;33.35;;;;;;;1.19;79.34;99925.89;2160397;81;27635;-68
2020/12/09 05:47:02;;;;;;;74.92;34.10;;;;;;;1.21;79.41;99929.80;2170663;81;28614;-67
2020/12/09 05:50:04;;;;;;;78.22;34.50;;;;;;;1.20;79.33;99928.06;2163634;81;31186;-66
2020/12/09 05:53:15;;;;;;;85.75;37.85;;;;;;;1.24;79.45;99920.52;2184568;80;33102;-64
2020/12/09 05:56:22;;;;;;;69.62;32.88;;;;;;;1.22;79.29;99930.23;2191585;80;29201;-68
2020/12/09 05:59:45;;;;;;;82.62;37.95;;;;;;;1.21;79.25;99945.20;2186736;80;27686;-65
2020/12/09 06:02:47;;;;;;;73.10;33.40;;;;;;;1.23;79.33;99939.03;2150781;82;28897;-63
2020/12/09 06:05:55;;;;;;;88.27;42.95;;;;;;;1.26;79.38;99949.08;2140648;82;30368;-62
2020/12/09 06:09:00;;;;;;;75.60;36.40;;;;;;;1.28;79.35;99936.73;2168170;81;34523;-62
2020/12/09 06:12:05;;;;;;;65.67;31.50;;;;;;;1.30;79.30;99945.50;2212446;80;29160;-63
2020/12/09 06:15:16;;;;;;;83.07;38.70;;;;;;;1.32;79.30;99954.70;2150974;82;27818;-63
2020/12/09 06:18:19;;;;;;;70.70;35.48;;;;;;;1.35;79.34;99954.65;2148977;82;29824;-63
2020/12/09 06:21:25;;;;;;;70.55;34.08;;;;;;;1.38;79.34;99957.67;2206266;80;31194;-66
2020/12/09 06:24:28;;;;;;;70.92;34.25;;;;;;;1.36;79.16;99961.67;2204065;80;34237;-66
2020/12/09 06:27:33;;;;;;;66.72;31.27;;;;;;;1.33;79.16;99968.31;2184884;80;29172;-62
2020/12/09 06:30:35;;;;;;;72.17;34.98;;;;;;;1.31;79.17;99967.47;2169169;82;28177;-64
2020/12/09 06:33:44;;;;;;;70.55;34.92;;;;;;;1.32;79.13;99963.94;2169918;81;28877;-66
2020/12/09 06:37:08;;;;;;;69.20;32.10;;;;;;;1.34;79.20;99970.06;2169523;82;31195;-66
2020/12/09 06:40:14;;;;;;;80.25;38.00;;;;;;;1.33;79.22;99974.45;2205217;80;33670;-64
2020/12/09 06:43:22;;;;;;;61.58;29.80;;;;;;;1.32;79.26;99967.89;2202185;80;29204;-63
2020/12/09 06:46:52;;;;;;;69.15;33.38;;;;;;;1.35;79.56;99966.52;2186052;81;27624;-65
2020/12/09 06:50:04;;;;;;;71.35;34.60;;;;;;;1.32;79.25;99966.14;2169809;80;30216;-65
2020/12/09 06:54:00;;;;;;;71.77;34.65;;;;;;;1.32;79.21;99964.82;2201175;80;30990;-63
2020/12/09 06:57:24;;;;;;;74.03;36.70;;;;;;;1.38;79.27;99958.98;2205404;80;33205;-63
2020/12/09 07:00:27;;;;;;;65.03;32.50;;;;;;;1.42;79.21;99965.97;2169404;80;30140;-63
2020/12/09 07:03:36;;;;;;;67.25;33.42;;;;;;;1.48;79.28;99963.23;2168786;82;27693;-64
2020/12/09 07:06:36;;;;;;;72.00;36.33;;;;;;;1.50;79.22;99974.61;2167785;82;29816;-62
2020/12/09 07:09:38;;;;;;;64.77;33.88;;;;;;;1.53;79.15;99994.36;2168995;80;31166;-63
2020/12/09 07:12:41;;;;;;;65.10;32.40;;;;;;;1.56;79.13;99991.67;2182212;80;33766;-63
2020/12/09 07:15:47;;;;;;;69.72;34.73;;;;;;;1.57;79.05;99989.92;2190035;80;29375;-65
2020/12/09 07:18:50;;;;;;;74.62;37.05;;;;;;;1.57;79.07;100003.12;2169116;80;27846;-63
2020/12/09 07:21:59;;;;;;;67.00;35.30;;;;;;;1.59;79.03;99996.02;2168694;82;29805;-62
2020/12/09 07:25:01;;;;;;;60.83;31.73;;;;;;;1.64;78.98;100003.41;2185130;80;31317;-61
2020/12/09 07:28:04;;;;;;;60.20;32.33;;;;;;;1.70;78.97;99999.78;2216422;80;34131;-61
2020/12/09 07:31:09;;;;;;;63.08;34.00;;;;;;;1.74;78.97;100000.16;2217334;80;30046;-62
2020/12/09 07:34:12;;;;;;;58.52;33.48;;;;;;;1.75;78.81;100000.13;2217438;80;28207;-60
2020/12/09 07:37:17;;;;;;;58.92;30.25;;;;;;;1.76;78.71;99992.63;2216417;80;28612;-61
2020/12/09 07:40:30;;;;;;;63.23;34.88;;;;;;;1.79;78.80;99993.03;2198941;80;30943;-61
2020/12/09 07:43:32;;;;;;;60.78;34.40;;;;;;;1.79;78.74;99999.17;2191180;80;33217;-65
2020/12/09 07:46:35;;;;;;;72.08;34.98;;;;;;;1.80;78.76;99995.63;2208726;80;30157;-61
2020/12/09 07:49:51;;;;;;;62.35;30.55;;;;;;;1.78;78.62;99999.22;2168788;80;28175;-66
2020/12/09 07:52:54;;;;;;;51.05;27.93;;;;;;;1.78;78.58;100002.71;2168157;82;28834;-66
2020/12/09 07:55:59;;;;;;;49.13;26.77;;;;;;;1.79;78.57;100003.14;2168296;82;31143;-66
2020/12/09 07:59:01;;;;;;;56.45;30.85;;;;;;;1.80;78.51;100011.95;2169209;80;33192;-61
2020/12/09 08:02:21;;;;;;;61.85;32.23;;;;;;;1.77;78.53;100015.95;2169362;80;31435;-66
2020/12/09 08:05:25;;;;;;;57.38;32.55;;;;;;;1.78;78.59;100021.20;2168259;82;27770;-65
2020/12/09 08:08:29;;;;;;;48.57;24.73;;;;;;;1.79;78.61;100026.91;2182762;80;30122;-64
2020/12/09 08:11:41;;;;;;;60.78;29.50;;;;;;;1.85;78.73;100025.91;2216910;80;31098;-61
2020/12/09 08:14:44;;;;;;;50.67;29.80;;;;;;;1.90;78.64;100028.03;2209921;80;33156;-63
2020/12/09 08:17:47;;;;;;;56.65;28.92;;;;;;;1.90;78.47;100033.31;2177747;80;29168;-65
2020/12/09 08:20:52;;;;;;;50.40;28.52;;;;;;;1.93;78.41;100038.98;2178033;81;27736;-64
2020/12/09 08:23:55;;;;;;;;;;;;;;;1.91;78.27;100040.34;2193779;80;29708;-65
2020/12/09 08:27:01;;;;;;;59.03;28.40;;;;;;;1.89;78.36;100038.17;2182262;80;32303;-63
2020/12/09 08:30:06;;;;;;;;;;;;;;;1.92;78.42;100039.88;2193324;80;32510;-64
2020/12/09 08:33:17;;;;;;;49.40;27.15;;;;;;;1.93;78.31;100042.94;2207061;80;30440;-63
2020/12/09 08:36:22;;;;;;;46.48;26.45;;;;;;;1.92;78.33;100046.48;2208733;80;27615;-66
2020/12/09 08:39:27;;;;;;;47.25;27.48;;;;;;;1.92;78.31;100050.45;2165269;82;28023;-64
2020/12/09 08:42:32;;;;;;;54.38;27.75;;;;;;;1.93;78.38;100046.91;2175464;80;31153;-63
2020/12/09 08:45:38;;;;;;;50.55;27.58;;;;;;;1.94;78.24;100048.66;2215244;80;33129;-65
2020/12/09 08:48:42;;;;;;;50.38;29.72;;;;;;;1.97;78.20;100045.95;2186063;80;29170;-64
2020/12/09 08:51:45;;;;;;;47.13;27.85;;;;;;;2.02;78.35;100042.80;2217749;80;27624;-63
2020/12/09 08:54:47;;;;;;;49.98;29.12;;;;;;;2.10;78.27;100035.58;2217793;80;28813;-65
2020/12/09 08:57:50;;;;;;;40.48;23.80;;;;;;;2.18;78.26;100039.39;2217665;80;31145;-65
2020/12/09 09:00:53;;;;;;;47.62;26.62;;;;;;;2.20;77.86;100033.63;2217591;80;33532;-64
2020/12/09 09:03:58;;;;;;;45.38;26.20;;;;;;;2.18;77.88;100039.86;2217430;80;29164;-64
2020/12/09 09:07:01;;;;;;;41.85;23.80;;;;;;;2.16;77.81;100040.34;2217493;80;27725;-65
2020/12/09 09:10:04;;;;;;;37.70;22.30;;;;;;;2.15;77.69;100037.27;2217719;80;28885;-63
2020/12/09 09:13:07;;;;;;;44.42;26.23;;;;;;;2.14;77.78;100037.73;2217162;80;31218;-65
2020/12/09 09:16:09;;;;;;;44.25;24.25;;;;;;;2.18;77.84;100023.53;2217097;80;33127;-64
2020/12/09 09:19:12;;;;;;;38.98;22.82;;;;;;;2.23;77.72;100026.11;2217562;80;29182;-63
2020/12/09 09:22:15;;;;;;;43.75;25.50;;;;;;;2.20;77.71;100028.34;2217630;80;27693;-59
2020/12/09 09:25:19;;;;;;;45.95;26.33;;;;;;;2.22;77.69;100024.38;2217520;80;29029;-58
2020/12/09 09:28:22;;;;;;;46.25;26.20;;;;;;;2.23;77.77;100023.00;2217287;80;31191;-59
2020/12/09 09:31:25;;;;;;;40.75;24.20;;;;;;;2.25;77.70;100022.53;2217360;80;33183;-61
2020/12/09 09:34:27;;;;;;;44.77;25.55;;;;;;;2.31;77.85;100026.81;2217249;80;29159;-58
2020/12/09 09:37:30;;;;;;;40.08;20.70;;;;;;;2.39;77.71;100035.91;2217592;80;28161;-59
2020/12/09 09:40:34;;;;;;;42.27;24.75;;;;;;;2.46;77.36;100035.33;2216854;80;28610;-58
2020/12/09 09:43:37;;;;;;;40.80;23.80;;;;;;;2.45;77.40;100028.30;2217477;79;31140;-59
2020/12/09 09:46:39;;;;;;;41.65;23.95;;;;;;;2.45;77.29;100033.16;2216235;80;33546;-60
2020/12/09 09:49:42;;;;;;;40.33;24.20;;;;;;;2.45;77.18;100032.27;2217238;80;29166;-61
2020/12/09 09:52:45;;;;;;;42.50;24.70;;;;;;;2.46;77.29;100030.05;2216888;80;27721;-62
2020/12/09 09:55:48;;;;;;;37.35;21.68;;;;;;;2.49;77.20;100032.16;2217198;80;29502;-65
2020/12/09 09:58:50;;;;;;;40.78;23.57;;;;;;;2.50;77.19;100033.91;2202620;80;31145;-64
2020/12/09 10:01:53;;;;;;;37.40;19.67;;;;;;;2.49;77.09;100028.20;2168514;82;34029;-64
2020/12/09 10:04:56;;;;;;;40.63;22.67;;;;;;;2.46;76.94;100031.36;2208637;80;29214;-62
2020/12/09 10:07:59;;;;;;;39.10;21.55;;;;;;;2.43;77.01;100041.09;2168620;82;27711;-66
2020/12/09 10:11:03;;;;;;;41.30;24.98;;;;;;;2.47;77.10;100039.28;2213770;80;28824;-66
2020/12/09 10:14:07;;;;;;;46.07;27.40;;;;;;;2.48;77.09;100036.17;2217499;80;32087;-62
2020/12/09 10:17:10;;;;;;;44.38;26.60;;;;;;;2.50;77.17;100036.55;2217182;80;34050;-66
2020/12/09 10:20:13;;;;;;;48.73;28.05;;;;;;;2.54;77.11;100037.38;2217191;80;31514;-64
2020/12/09 10:23:15;;;;;;;51.50;27.02;;;;;;;2.57;77.08;100032.89;2217492;80;27670;-64
2020/12/09 10:26:19;;;;;;;56.68;30.95;;;;;;;2.62;77.19;100036.75;2217249;80;29727;-66
2020/12/09 10:29:22;;;;;;;57.05;30.80;;;;;;;2.67;77.16;100034.89;2216398;80;31140;-66
2020/12/09 10:32:26;;;;;;;54.88;27.20;;;;;;;2.71;77.13;100032.61;2217479;80;33124;-65
2020/12/09 10:35:29;;;;;;;44.40;25.05;;;;;;;2.68;76.58;100033.98;2217637;80;29154;-65
2020/12/09 10:38:32;;;;;;;48.55;26.10;;;;;;;2.65;76.71;100025.27;2217396;80;27678;-64
2020/12/09 10:41:41;;;;;;;36.63;21.75;;;;;;;2.67;76.65;100028.72;2217409;80;28967;-63
2020/12/09 10:44:44;;;;;;;42.25;22.22;;;;;;;2.70;76.33;100024.69;2217217;80;31142;-65
2020/12/09 10:47:47;;;;;;;42.65;24.23;;;;;;;2.69;76.36;100024.27;2217206;80;33081;-63
2020/12/09 10:50:50;;;;;;;43.30;24.82;;;;;;;2.68;76.23;100030.02;2217460;80;29422;-61
2020/12/09 10:53:54;;;;;;;44.42;26.40;;;;;;;2.63;76.10;100028.39;2216901;80;27721;-63
2020/12/09 10:57:01;;;;;;;46.30;26.07;;;;;;;2.60;76.43;100019.19;2217426;80;28814;-59
2020/12/09 11:00:06;;;;;;;44.80;26.82;;;;;;;2.66;76.47;100016.39;2217235;80;32037;-58
2020/12/09 11:03:09;;;;;;;44.93;26.87;;;;;;;2.72;76.50;100011.87;2216628;80;33896;-59
2020/12/09 11:06:11;;;;;;;47.30;27.00;;;;;;;2.79;76.34;100014.36;2217023;80;29618;-59
2020/12/09 11:09:17;;;;;;;48.98;27.00;;;;;;;2.74;76.06;100005.20;2217451;80;27642;-59
2020/12/09 11:12:20;;;;;;;51.68;28.15;;;;;;;2.71;76.02;100007.91;2217347;80;28874;-59
2020/12/09 11:15:23;;;;;;;43.52;24.52;;;;;;;2.71;76.13;100013.20;2216840;80;31029;-58
2020/12/09 11:18:26;;;;;;;36.65;23.35;;;;;;;2.73;76.06;100007.44;2217320;80;33142;-58
2020/12/09 11:21:32;;;;;;;43.85;26.25;;;;;;;2.66;75.81;100021.68;2217425;80;28374;-60
2020/12/09 11:24:35;;;;;;;47.35;27.20;;;;;;;2.61;76.07;100016.50;2217417;80;27619;-60
2020/12/09 11:27:38;;;;;;;48.85;25.40;;;;;;;2.66;76.13;100008.45;2217354;80;28687;-60
2020/12/09 11:30:40;;;;;;;40.50;24.20;;;;;;;2.69;76.05;99996.50;2216260;80;31145;-64
2020/12/09 11:33:43;;;;;;;45.23;27.67;;;;;;;2.68;75.77;99996.08;2217395;80;33115;-63
2020/12/09 11:36:48;;;;;;;44.65;25.37;;;;;;;2.64;75.84;100002.36;2204750;80;29159;-65
2020/12/09 11:39:50;;;;;;;48.05;25.95;;;;;;;2.62;75.77;100010.31;2178621;81;27788;-63
2020/12/09 11:42:55;;;;;;;51.77;28.17;;;;;;;2.60;75.75;99997.56;2178876;81;28820;-65
2020/12/09 11:45:57;;;;;;;47.35;26.90;;;;;;;2.62;75.88;99994.91;2187598;81;31141;-60
2020/12/09 11:49:00;;;;;;;46.23;26.42;;;;;;;2.63;75.75;100005.91;2192750;81;34048;-60
2020/12/09 11:52:03;;;;;;;48.23;27.62;;;;;;;2.60;75.56;99994.06;2192895;81;29165;-63
2020/12/09 11:55:06;;;;;;;51.58;28.67;;;;;;;2.56;75.55;100002.06;2192819;79;27807;-60
2020/12/09 11:58:09;;;;;;;70.75;36.93;;;;;;;2.56;75.67;100008.67;2192919;81;28820;-63
2020/12/09 12:01:12;;;;;;;53.15;29.92;;;;;;;2.57;75.73;100005.56;2192935;81;31933;-61
2020/12/09 12:04:16;;;;;;;91.53;47.20;;;;;;;2.58;75.60;100003.34;2192763;81;33107;-63
2020/12/09 12:07:19;;;;;;;55.35;31.30;;;;;;;2.62;75.50;100004.16;2192857;81;30206;-62
2020/12/09 12:10:23;;;;;;;58.25;32.13;;;;;;;2.69;75.37;100011.05;2191839;81;27709;-62
2020/12/09 12:13:26;;;;;;;48.50;26.70;;;;;;;2.78;75.61;100012.61;2149196;81;30217;-62
2020/12/09 12:16:29;;;;;;;47.48;26.05;;;;;;;2.86;75.46;100012.86;2192804;81;30148;-63
2020/12/09 12:19:31;;;;;;;48.70;27.58;;;;;;;2.85;74.97;100016.87;2218133;79;34040;-62
2020/12/09 12:22:34;;;;;;;88.30;43.73;;;;;;;2.85;75.05;100003.66;2231060;79;29775;-62
2020/12/09 12:25:37;;;;;;;81.42;41.37;;;;;;;2.85;74.80;100001.86;2231717;79;27581;-64
2020/12/09 12:28:42;;;;;;;84.28;39.00;;;;;;;2.84;75.05;99996.15;2231334;79;28858;-60
2020/12/09 12:31:44;;;;;;;59.77;31.23;;;;;;;2.89;75.20;99993.42;2230992;79;32391;-62
2020/12/09 12:34:47;;;;;;;48.25;26.97;;;;;;;2.87;74.98;99987.30;2231746;79;32361;-62
2020/12/09 12:37:50;;;;;;;54.60;29.72;;;;;;;2.91;74.84;99988.08;2231650;79;29149;-60
2020/12/09 12:40:52;;;;;;;65.00;32.75;;;;;;;2.90;74.73;99980.58;2230575;79;27713;-62
2020/12/09 12:43:55;;;;;;;78.30;37.48;;;;;;;2.90;74.86;99987.20;2231616;79;28835;-60
2020/12/09 12:46:57;;;;;;;74.95;37.38;;;;;;;2.89;74.60;99979.73;2216102;79;32516;-60
2020/12/09 12:50:00;;;;;;;51.88;29.12;;;;;;;2.83;74.42;99986.94;2168500;82;33124;-61
2020/12/09 12:53:03;;;;;;;74.50;37.80;;;;;;;2.81;74.56;99987.42;2208195;80;30233;-59
2020/12/09 12:56:06;;;;;;;84.83;40.52;;;;;;;2.77;74.41;99995.00;2186614;80;27681;-61
2020/12/09 12:59:09;;;;;;;57.00;32.17;;;;;;;2.68;74.36;99995.64;2206856;80;28817;-62
2020/12/09 13:02:12;;;;;;;60.50;32.73;;;;;;;2.64;74.33;99994.42;2205730;80;32022;-63
2020/12/09 13:05:15;;;;;;;53.30;27.02;;;;;;;2.58;74.55;99987.03;2216978;80;33110;-63
2020/12/09 13:08:18;;;;;;;66.70;32.83;;;;;;;2.60;74.56;99996.24;2216658;80;29176;-60
2020/12/09 13:11:20;;;;;;;82.12;39.67;;;;;;;2.62;74.50;99995.77;2216432;80;27682;-60
2020/12/09 13:14:36;;;;;;;63.15;33.95;;;;;;;2.63;74.31;99994.86;2217194;80;28823;-61
2020/12/09 13:17:58;;;;;;;50.33;29.40;;;;;;;2.58;74.28;100008.62;2217084;80;27881;-61
2020/12/09 13:21:10;;;;;;;64.05;33.15;;;;;;;2.58;74.42;100009.95;2216940;80;33965;-64
2020/12/09 13:24:26;;;;;;;46.92;26.40;;;;;;;2.56;74.33;100008.67;2212882;80;27762;-60
2020/12/09 13:27:51;;;;;;;51.35;28.23;;;;;;;2.53;74.22;100001.27;2217304;80;27872;-61
2020/12/09 13:30:56;;;;;;;71.53;38.70;;;;;;;2.51;74.21;99997.78;2216873;80;29776;-62
2020/12/09 13:33:59;;;;;;;51.98;27.98;;;;;;;2.52;74.25;100010.95;2217341;80;31128;-61
2020/12/09 13:37:02;;;;;;;56.60;30.00;;;;;;;2.49;74.17;100008.37;2217151;80;33186;-63
2020/12/09 13:40:05;;;;;;;60.10;30.25;;;;;;;2.40;74.06;100006.79;2216418;80;30117;-65
2020/12/09 13:43:08;;;;;;;57.05;31.37;;;;;;;2.39;74.20;100006.83;2217236;80;27697;-59
2020/12/09 13:46:14;;;;;;;67.27;35.95;;;;;;;2.38;74.26;100000.69;2217071;80;29660;-61
2020/12/09 13:49:16;;;;;;;;;;;;;;;2.38;74.22;100002.02;2219708;80;30952;-60
2020/12/09 13:52:18;;;;;;;59.05;30.80;;;;;;;2.33;74.15;99997.69;2216227;80;33582;-63
2020/12/09 13:55:21;;;;;;;73.87;42.17;;;;;;;2.31;74.33;100000.85;2217064;80;30209;-62
2020/12/09 13:58:24;;;;;;;61.75;34.70;;;;;;;2.31;74.47;99997.73;2217191;80;27623;-60
2020/12/09 14:01:27;;;;;;;63.73;33.42;;;;;;;2.30;74.30;100002.60;2217205;80;28818;-60
2020/12/09 14:04:30;;;;;;;60.15;33.67;;;;;;;2.24;74.32;100004.92;2216966;80;31618;-61
2020/12/09 14:07:41;;;;;;;55.48;30.77;;;;;;;2.19;74.36;100009.89;2216556;80;33110;-66
2020/12/09 14:10:53;;;;;;;64.87;31.90;;;;;;;2.15;74.35;100014.81;2184591;80;27695;-59
2020/12/09 14:14:00;;;;;;;61.02;31.62;;;;;;;2.06;74.39;100022.03;2184211;80;27671;-59
2020/12/09 14:17:07;;;;;;;52.58;29.18;;;;;;;2.02;74.49;100019.45;2216434;79;28837;-62
2020/12/09 14:20:10;;;;;;;60.90;35.52;;;;;;;1.95;74.31;100018.27;2217277;80;32101;-59
2020/12/09 14:23:14;;;;;;;59.38;34.35;;;;;;;1.88;74.52;100017.94;2216426;80;34062;-59
2020/12/09 14:26:21;;;;;;;61.95;35.25;;;;;;;1.86;74.67;100019.73;2217471;80;30121;-60
2020/12/09 14:29:24;;;;;;;64.45;34.00;;;;;;;1.84;74.72;100023.31;2217131;80;27716;-64
2020/12/09 14:32:26;;;;;;;57.10;30.85;;;;;;;1.82;74.82;100022.89;2214037;80;29269;-64
2020/12/09 14:35:29;;;;;;;57.43;31.82;;;;;;;1.82;74.74;100022.89;2216219;80;31564;-68
2020/12/09 14:38:31;;;;;;;67.90;32.40;;;;;;;1.84;74.84;100020.21;2214135;80;33209;-68